sensor_id;sensor_type;location;lat;lon;timestamp;temperature;humidity
44990;DHT22;30723;51.206;3.326;2023-05-07T00:00:19;16.50;99.90
44990;DHT22;30723;51.206;3.326;2023-05-07T00:02:47;16.50;99.90
44990;DHT22;30723;51.206;3.326;2023-05-07T00:05:14;16.50;99.90
44990;DHT22;30723;51.206;3.326;2023-05-07T00:07:40;16.50;99.90
44990;DHT22;30723;51.206;3.326;2023-05-07T00:10:07;16.40;99.90
44990;DHT22;30723;51.206;3.326;2023-05-07T00:12:34;16.40;99.90
44990;DHT22;30723;51.206;3.326;2023-05-07T00:15:02;16.40;99.90
44990;DHT22;30723;51.206;3.326;2023-05-07T00:17:29;16.40;99.90
44990;DHT22;30723;51.206;3.326;2023-05-07T00:19:55;16.40;99.90
44990;DHT22;30723;51.206;3.326;2023-05-07T00:22:22;16.40;99.90
44990;DHT22;30723;51.206;3.326;2023-05-07T00:24:48;16.50;99.90
44990;DHT22;30723;51.206;3.326;2023-05-07T00:27:15;16.50;99.90
44990;DHT22;30723;51.206;3.326;2023-05-07T00:29:42;16.50;99.90
44990;DHT22;30723;51.206;3.326;2023-05-07T00:32:09;16.50;99.90
44990;DHT22;30723;51.206;3.326;2023-05-07T00:34:36;16.60;99.90
44990;DHT22;30723;51.206;3.326;2023-05-07T00:37:03;16.50;99.90
44990;DHT22;30723;51.206;3.326;2023-05-07T00:39:30;16.50;99.90
44990;DHT22;30723;51.206;3.326;2023-05-07T00:41:56;16.50;99.90
44990;DHT22;30723;51.206;3.326;2023-05-07T00:44:24;16.50;99.90
44990;DHT22;30723;51.206;3.326;2023-05-07T00:46:50;16.40;99.90
44990;DHT22;30723;51.206;3.326;2023-05-07T00:49:18;16.50;99.90
44990;DHT22;30723;51.206;3.326;2023-05-07T00:51:44;16.40;99.90
44990;DHT22;30723;51.206;3.326;2023-05-07T00:54:11;16.40;99.90
44990;DHT22;30723;51.206;3.326;2023-05-07T00:56:37;16.30;99.90
44990;DHT22;30723;51.206;3.326;2023-05-07T00:59:06;16.40;99.90
44990;DHT22;30723;51.206;3.326;2023-05-07T01:01:33;16.40;99.90
44990;DHT22;30723;51.206;3.326;2023-05-07T01:04:00;16.40;99.90
44990;DHT22;30723;51.206;3.326;2023-05-07T01:06:28;16.40;99.90
44990;DHT22;30723;51.206;3.326;2023-05-07T01:08:55;16.30;99.90
44990;DHT22;30723;51.206;3.326;2023-05-07T01:11:24;16.30;99.90
44990;DHT22;30723;51.206;3.326;2023-05-07T01:13:55;16.20;99.90
44990;DHT22;30723;51.206;3.326;2023-05-07T01:16:26;16.20;99.90
44990;DHT22;30723;51.206;3.326;2023-05-07T01:18:53;16.20;99.90
44990;DHT22;30723;51.206;3.326;2023-05-07T01:21:24;16.10;99.90
44990;DHT22;30723;51.206;3.326;2023-05-07T01:23:53;16.10;99.90
44990;DHT22;30723;51.206;3.326;2023-05-07T01:26:22;16.10;99.90
44990;DHT22;30723;51.206;3.326;2023-05-07T01:28:50;16.10;99.90
44990;DHT22;30723;51.206;3.326;2023-05-07T01:31:18;16.00;99.90
44990;DHT22;30723;51.206;3.326;2023-05-07T01:33:46;16.00;99.90
44990;DHT22;30723;51.206;3.326;2023-05-07T01:36:15;15.90;99.90
44990;DHT22;30723;51.206;3.326;2023-05-07T01:38:44;15.80;99.90
44990;DHT22;30723;51.206;3.326;2023-05-07T01:41:12;15.80;99.90
44990;DHT22;30723;51.206;3.326;2023-05-07T01:43:40;15.70;99.90
44990;DHT22;30723;51.206;3.326;2023-05-07T01:46:08;15.60;99.90
44990;DHT22;30723;51.206;3.326;2023-05-07T01:48:36;15.50;99.90
44990;DHT22;30723;51.206;3.326;2023-05-07T01:51:04;15.40;99.90
44990;DHT22;30723;51.206;3.326;2023-05-07T01:53:36;15.40;99.90
44990;DHT22;30723;51.206;3.326;2023-05-07T01:56:02;15.30;99.90
44990;DHT22;30723;51.206;3.326;2023-05-07T01:58:28;15.20;99.90
44990;DHT22;30723;51.206;3.326;2023-05-07T02:00:55;15.20;99.90
44990;DHT22;30723;51.206;3.326;2023-05-07T02:03:22;15.10;99.90
44990;DHT22;30723;51.206;3.326;2023-05-07T02:05:48;15.10;99.90
44990;DHT22;30723;51.206;3.326;2023-05-07T02:08:15;15.10;99.90
44990;DHT22;30723;51.206;3.326;2023-05-07T02:10:42;15.10;99.90
44990;DHT22;30723;51.206;3.326;2023-05-07T02:13:09;15.10;99.90
44990;DHT22;30723;51.206;3.326;2023-05-07T02:15:35;15.00;99.90
44990;DHT22;30723;51.206;3.326;2023-05-07T02:18:06;15.00;99.90
44990;DHT22;30723;51.206;3.326;2023-05-07T02:20:32;14.90;99.90
44990;DHT22;30723;51.206;3.326;2023-05-07T02:22:58;14.90;99.90
44990;DHT22;30723;51.206;3.326;2023-05-07T02:25:25;14.80;99.90
44990;DHT22;30723;51.206;3.326;2023-05-07T02:27:51;14.80;99.90
44990;DHT22;30723;51.206;3.326;2023-05-07T02:30:18;14.80;99.90
44990;DHT22;30723;51.206;3.326;2023-05-07T02:32:45;14.90;99.90
44990;DHT22;30723;51.206;3.326;2023-05-07T02:35:12;14.90;99.90
44990;DHT22;30723;51.206;3.326;2023-05-07T02:37:39;14.90;99.90
44990;DHT22;30723;51.206;3.326;2023-05-07T02:40:07;14.90;99.90
44990;DHT22;30723;51.206;3.326;2023-05-07T02:42:34;14.90;99.90
44990;DHT22;30723;51.206;3.326;2023-05-07T02:45:01;14.90;99.90
44990;DHT22;30723;51.206;3.326;2023-05-07T02:47:28;14.90;99.90
44990;DHT22;30723;51.206;3.326;2023-05-07T02:49:55;14.90;99.90
44990;DHT22;30723;51.206;3.326;2023-05-07T02:52:23;14.90;99.90
44990;DHT22;30723;51.206;3.326;2023-05-07T02:54:50;14.90;99.90
44990;DHT22;30723;51.206;3.326;2023-05-07T02:57:17;14.90;99.90
44990;DHT22;30723;51.206;3.326;2023-05-07T02:59:44;15.00;99.90
44990;DHT22;30723;51.206;3.326;2023-05-07T03:02:10;14.90;99.90
44990;DHT22;30723;51.206;3.326;2023-05-07T03:04:37;15.00;99.90
44990;DHT22;30723;51.206;3.326;2023-05-07T03:07:03;15.00;99.90
44990;DHT22;30723;51.206;3.326;2023-05-07T03:09:30;15.00;99.90
44990;DHT22;30723;51.206;3.326;2023-05-07T03:11:57;15.00;99.90
44990;DHT22;30723;51.206;3.326;2023-05-07T03:14:24;14.90;99.90
44990;DHT22;30723;51.206;3.326;2023-05-07T03:16:51;14.90;99.90
44990;DHT22;30723;51.206;3.326;2023-05-07T03:19:18;14.90;99.90
44990;DHT22;30723;51.206;3.326;2023-05-07T03:21:43;14.90;99.90
44990;DHT22;30723;51.206;3.326;2023-05-07T03:24:10;14.90;99.90
44990;DHT22;30723;51.206;3.326;2023-05-07T03:26:35;14.90;99.90
44990;DHT22;30723;51.206;3.326;2023-05-07T03:29:03;15.00;99.90
44990;DHT22;30723;51.206;3.326;2023-05-07T03:31:29;15.00;99.90
44990;DHT22;30723;51.206;3.326;2023-05-07T03:33:57;15.00;99.90
44990;DHT22;30723;51.206;3.326;2023-05-07T03:36:24;15.10;99.90
44990;DHT22;30723;51.206;3.326;2023-05-07T03:38:53;15.10;99.90
44990;DHT22;30723;51.206;3.326;2023-05-07T03:41:19;15.10;99.90
44990;DHT22;30723;51.206;3.326;2023-05-07T03:43:46;15.20;99.90
44990;DHT22;30723;51.206;3.326;2023-05-07T03:46:13;15.20;99.90
44990;DHT22;30723;51.206;3.326;2023-05-07T03:48:39;15.20;99.90
44990;DHT22;30723;51.206;3.326;2023-05-07T03:51:06;15.30;99.90
44990;DHT22;30723;51.206;3.326;2023-05-07T03:53:33;15.30;99.90
44990;DHT22;30723;51.206;3.326;2023-05-07T03:55:58;15.30;99.90
44990;DHT22;30723;51.206;3.326;2023-05-07T03:58:25;15.30;99.90
44990;DHT22;30723;51.206;3.326;2023-05-07T04:00:52;15.30;99.90
44990;DHT22;30723;51.206;3.326;2023-05-07T04:03:17;15.30;99.90
44990;DHT22;30723;51.206;3.326;2023-05-07T04:05:44;15.30;99.90
44990;DHT22;30723;51.206;3.326;2023-05-07T04:08:11;15.20;99.90
44990;DHT22;30723;51.206;3.326;2023-05-07T04:10:38;15.20;99.90
44990;DHT22;30723;51.206;3.326;2023-05-07T04:13:05;15.30;99.90
44990;DHT22;30723;51.206;3.326;2023-05-07T04:15:31;15.30;99.90
44990;DHT22;30723;51.206;3.326;2023-05-07T04:17:58;15.30;99.90
44990;DHT22;30723;51.206;3.326;2023-05-07T04:20:25;15.40;99.90
44990;DHT22;30723;51.206;3.326;2023-05-07T04:22:52;15.40;99.90
44990;DHT22;30723;51.206;3.326;2023-05-07T04:25:17;15.40;99.90
44990;DHT22;30723;51.206;3.326;2023-05-07T04:27:43;15.40;99.90
44990;DHT22;30723;51.206;3.326;2023-05-07T04:30:09;15.50;99.90
44990;DHT22;30723;51.206;3.326;2023-05-07T04:32:35;15.50;99.90
44990;DHT22;30723;51.206;3.326;2023-05-07T04:35:03;15.50;99.90
44990;DHT22;30723;51.206;3.326;2023-05-07T04:37:29;15.50;99.90
44990;DHT22;30723;51.206;3.326;2023-05-07T04:39:55;15.60;99.90
44990;DHT22;30723;51.206;3.326;2023-05-07T04:42:20;15.60;99.90
44990;DHT22;30723;51.206;3.326;2023-05-07T04:44:47;15.60;99.90
44990;DHT22;30723;51.206;3.326;2023-05-07T04:47:14;15.70;99.90
44990;DHT22;30723;51.206;3.326;2023-05-07T04:49:40;15.70;99.90
44990;DHT22;30723;51.206;3.326;2023-05-07T04:52:07;15.80;99.90
44990;DHT22;30723;51.206;3.326;2023-05-07T04:54:34;15.80;99.90
44990;DHT22;30723;51.206;3.326;2023-05-07T04:57:03;15.90;99.90
44990;DHT22;30723;51.206;3.326;2023-05-07T04:59:29;15.90;99.90
44990;DHT22;30723;51.206;3.326;2023-05-07T05:01:56;16.00;99.90
44990;DHT22;30723;51.206;3.326;2023-05-07T05:04:23;16.00;99.90
44990;DHT22;30723;51.206;3.326;2023-05-07T05:06:50;16.10;99.90
44990;DHT22;30723;51.206;3.326;2023-05-07T05:09:18;16.10;99.90
44990;DHT22;30723;51.206;3.326;2023-05-07T05:11:45;16.20;99.90
44990;DHT22;30723;51.206;3.326;2023-05-07T05:14:12;16.20;99.90
44990;DHT22;30723;51.206;3.326;2023-05-07T05:16:39;16.30;99.90
44990;DHT22;30723;51.206;3.326;2023-05-07T05:19:05;16.40;99.90
44990;DHT22;30723;51.206;3.326;2023-05-07T05:21:32;16.40;99.90
44990;DHT22;30723;51.206;3.326;2023-05-07T05:23:58;16.40;99.90
44990;DHT22;30723;51.206;3.326;2023-05-07T05:26:24;16.40;99.90
44990;DHT22;30723;51.206;3.326;2023-05-07T05:28:51;16.40;99.90
44990;DHT22;30723;51.206;3.326;2023-05-07T05:31:17;16.50;99.90
44990;DHT22;30723;51.206;3.326;2023-05-07T05:33:43;16.50;99.90
44990;DHT22;30723;51.206;3.326;2023-05-07T05:36:10;16.50;99.90
44990;DHT22;30723;51.206;3.326;2023-05-07T05:38:37;16.50;99.90
44990;DHT22;30723;51.206;3.326;2023-05-07T05:41:04;16.60;99.90
44990;DHT22;30723;51.206;3.326;2023-05-07T05:43:31;16.60;99.90
44990;DHT22;30723;51.206;3.326;2023-05-07T05:45:57;16.70;99.90
44990;DHT22;30723;51.206;3.326;2023-05-07T05:48:23;16.70;99.90
44990;DHT22;30723;51.206;3.326;2023-05-07T05:50:49;16.70;99.90
44990;DHT22;30723;51.206;3.326;2023-05-07T05:53:16;16.70;99.90
44990;DHT22;30723;51.206;3.326;2023-05-07T05:55:42;16.80;99.90
44990;DHT22;30723;51.206;3.326;2023-05-07T05:58:09;16.90;99.90
44990;DHT22;30723;51.206;3.326;2023-05-07T06:00:36;16.90;99.90
44990;DHT22;30723;51.206;3.326;2023-05-07T06:03:02;17.00;99.90
44990;DHT22;30723;51.206;3.326;2023-05-07T06:05:29;17.10;99.90
44990;DHT22;30723;51.206;3.326;2023-05-07T06:07:55;17.10;99.90
44990;DHT22;30723;51.206;3.326;2023-05-07T06:10:22;17.20;99.90
44990;DHT22;30723;51.206;3.326;2023-05-07T06:12:48;17.20;99.90
44990;DHT22;30723;51.206;3.326;2023-05-07T06:15:15;17.20;99.90
44990;DHT22;30723;51.206;3.326;2023-05-07T06:17:42;17.20;99.90
44990;DHT22;30723;51.206;3.326;2023-05-07T06:20:08;17.30;99.90
44990;DHT22;30723;51.206;3.326;2023-05-07T06:22:34;17.40;99.90
44990;DHT22;30723;51.206;3.326;2023-05-07T06:25:00;17.40;99.90
44990;DHT22;30723;51.206;3.326;2023-05-07T06:27:27;17.60;99.90
44990;DHT22;30723;51.206;3.326;2023-05-07T06:29:54;17.60;99.90
44990;DHT22;30723;51.206;3.326;2023-05-07T06:32:28;17.70;99.90
44990;DHT22;30723;51.206;3.326;2023-05-07T06:34:55;17.90;99.90
44990;DHT22;30723;51.206;3.326;2023-05-07T06:37:22;18.00;99.90
44990;DHT22;30723;51.206;3.326;2023-05-07T06:39:49;18.20;99.90
44990;DHT22;30723;51.206;3.326;2023-05-07T06:42:15;18.30;99.90
44990;DHT22;30723;51.206;3.326;2023-05-07T06:44:41;18.40;99.90
44990;DHT22;30723;51.206;3.326;2023-05-07T06:47:07;18.60;99.90
44990;DHT22;30723;51.206;3.326;2023-05-07T06:49:33;18.70;99.90
44990;DHT22;30723;51.206;3.326;2023-05-07T06:52:00;18.80;99.90
44990;DHT22;30723;51.206;3.326;2023-05-07T06:54:27;19.00;99.90
44990;DHT22;30723;51.206;3.326;2023-05-07T06:56:54;19.00;99.90
44990;DHT22;30723;51.206;3.326;2023-05-07T06:59:20;19.20;99.90
44990;DHT22;30723;51.206;3.326;2023-05-07T07:01:47;19.30;99.90
44990;DHT22;30723;51.206;3.326;2023-05-07T07:04:14;19.40;99.90
44990;DHT22;30723;51.206;3.326;2023-05-07T07:06:41;19.50;99.90
44990;DHT22;30723;51.206;3.326;2023-05-07T07:09:07;19.50;99.90
44990;DHT22;30723;51.206;3.326;2023-05-07T07:11:32;19.70;99.90
44990;DHT22;30723;51.206;3.326;2023-05-07T07:13:58;19.80;99.90
44990;DHT22;30723;51.206;3.326;2023-05-07T07:16:25;19.70;99.90
44990;DHT22;30723;51.206;3.326;2023-05-07T07:18:51;19.70;99.90
44990;DHT22;30723;51.206;3.326;2023-05-07T07:21:17;19.60;99.90
44990;DHT22;30723;51.206;3.326;2023-05-07T07:23:42;19.80;99.90
44990;DHT22;30723;51.206;3.326;2023-05-07T07:26:08;19.80;99.90
44990;DHT22;30723;51.206;3.326;2023-05-07T07:28:35;19.80;99.90
44990;DHT22;30723;51.206;3.326;2023-05-07T07:31:02;19.70;99.90
44990;DHT22;30723;51.206;3.326;2023-05-07T07:33:29;19.80;99.90
44990;DHT22;30723;51.206;3.326;2023-05-07T07:35:56;19.90;99.90
44990;DHT22;30723;51.206;3.326;2023-05-07T07:38:22;20.00;99.90
44990;DHT22;30723;51.206;3.326;2023-05-07T07:40:48;20.10;99.90
44990;DHT22;30723;51.206;3.326;2023-05-07T07:43:14;20.30;99.90
44990;DHT22;30723;51.206;3.326;2023-05-07T07:45:40;20.30;99.90
44990;DHT22;30723;51.206;3.326;2023-05-07T07:48:07;20.20;99.90
44990;DHT22;30723;51.206;3.326;2023-05-07T07:50:36;20.30;99.90
44990;DHT22;30723;51.206;3.326;2023-05-07T07:53:02;20.30;99.90
44990;DHT22;30723;51.206;3.326;2023-05-07T07:55:27;20.30;99.90
44990;DHT22;30723;51.206;3.326;2023-05-07T07:57:54;20.30;99.90
44990;DHT22;30723;51.206;3.326;2023-05-07T08:00:21;20.30;99.90
44990;DHT22;30723;51.206;3.326;2023-05-07T08:02:47;20.20;99.90
44990;DHT22;30723;51.206;3.326;2023-05-07T08:05:13;20.20;99.90
44990;DHT22;30723;51.206;3.326;2023-05-07T08:07:41;20.30;99.90
44990;DHT22;30723;51.206;3.326;2023-05-07T08:10:09;20.20;99.90
44990;DHT22;30723;51.206;3.326;2023-05-07T08:12:35;20.20;99.90
44990;DHT22;30723;51.206;3.326;2023-05-07T08:15:03;20.10;99.90
44990;DHT22;30723;51.206;3.326;2023-05-07T08:17:29;20.20;99.90
44990;DHT22;30723;51.206;3.326;2023-05-07T08:19:55;20.10;99.90
44990;DHT22;30723;51.206;3.326;2023-05-07T08:22:20;20.00;99.90
44990;DHT22;30723;51.206;3.326;2023-05-07T08:24:48;20.00;99.90
44990;DHT22;30723;51.206;3.326;2023-05-07T08:27:15;20.00;99.90
44990;DHT22;30723;51.206;3.326;2023-05-07T08:29:42;19.90;99.90
44990;DHT22;30723;51.206;3.326;2023-05-07T08:32:09;19.90;99.90
44990;DHT22;30723;51.206;3.326;2023-05-07T08:34:36;19.70;99.90
44990;DHT22;30723;51.206;3.326;2023-05-07T08:37:03;19.60;99.90
44990;DHT22;30723;51.206;3.326;2023-05-07T08:39:30;19.50;99.90
44990;DHT22;30723;51.206;3.326;2023-05-07T08:41:57;19.50;99.90
44990;DHT22;30723;51.206;3.326;2023-05-07T08:44:28;19.50;99.90
44990;DHT22;30723;51.206;3.326;2023-05-07T08:46:59;19.40;99.90
44990;DHT22;30723;51.206;3.326;2023-05-07T08:49:27;19.30;99.90
44990;DHT22;30723;51.206;3.326;2023-05-07T08:51:54;19.20;99.90
44990;DHT22;30723;51.206;3.326;2023-05-07T08:54:22;19.10;99.90
44990;DHT22;30723;51.206;3.326;2023-05-07T08:56:50;19.00;99.90
44990;DHT22;30723;51.206;3.326;2023-05-07T08:59:17;19.00;99.90
44990;DHT22;30723;51.206;3.326;2023-05-07T09:01:44;18.90;99.90
44990;DHT22;30723;51.206;3.326;2023-05-07T09:04:11;18.90;99.90
44990;DHT22;30723;51.206;3.326;2023-05-07T09:06:39;18.80;99.90
44990;DHT22;30723;51.206;3.326;2023-05-07T09:09:08;18.70;99.90
44990;DHT22;30723;51.206;3.326;2023-05-07T09:11:35;18.80;99.90
44990;DHT22;30723;51.206;3.326;2023-05-07T09:14:02;18.80;99.90
44990;DHT22;30723;51.206;3.326;2023-05-07T09:16:30;18.70;99.90
44990;DHT22;30723;51.206;3.326;2023-05-07T09:18:59;18.60;99.90
44990;DHT22;30723;51.206;3.326;2023-05-07T09:21:27;18.50;99.90
44990;DHT22;30723;51.206;3.326;2023-05-07T09:23:55;18.40;99.90
44990;DHT22;30723;51.206;3.326;2023-05-07T09:26:23;18.30;99.90
44990;DHT22;30723;51.206;3.326;2023-05-07T09:28:49;18.10;99.90
44990;DHT22;30723;51.206;3.326;2023-05-07T09:31:16;17.90;99.90
44990;DHT22;30723;51.206;3.326;2023-05-07T09:33:43;17.90;99.90
44990;DHT22;30723;51.206;3.326;2023-05-07T09:36:09;17.80;99.90
44990;DHT22;30723;51.206;3.326;2023-05-07T09:38:36;17.90;99.90
44990;DHT22;30723;51.206;3.326;2023-05-07T09:41:04;17.90;99.90
44990;DHT22;30723;51.206;3.326;2023-05-07T09:43:38;18.00;99.90
44990;DHT22;30723;51.206;3.326;2023-05-07T09:48:38;18.10;99.90
44990;DHT22;30723;51.206;3.326;2023-05-07T09:51:32;18.20;99.90
44990;DHT22;30723;51.206;3.326;2023-05-07T09:53:57;18.30;99.90
44990;DHT22;30723;51.206;3.326;2023-05-07T09:56:25;18.40;99.90
44990;DHT22;30723;51.206;3.326;2023-05-07T09:58:54;18.60;99.90
44990;DHT22;30723;51.206;3.326;2023-05-07T10:01:22;18.70;99.90
44990;DHT22;30723;51.206;3.326;2023-05-07T10:03:51;18.70;99.90
44990;DHT22;30723;51.206;3.326;2023-05-07T10:06:21;18.80;99.90
44990;DHT22;30723;51.206;3.326;2023-05-07T10:08:49;19.00;99.90
44990;DHT22;30723;51.206;3.326;2023-05-07T10:11:17;19.00;99.90
44990;DHT22;30723;51.206;3.326;2023-05-07T10:13:44;19.10;99.90
44990;DHT22;30723;51.206;3.326;2023-05-07T10:16:12;19.20;99.90
44990;DHT22;30723;51.206;3.326;2023-05-07T10:18:41;19.20;99.90
44990;DHT22;30723;51.206;3.326;2023-05-07T10:21:16;19.20;99.90
44990;DHT22;30723;51.206;3.326;2023-05-07T10:23:47;19.20;99.90
44990;DHT22;30723;51.206;3.326;2023-05-07T10:26:17;19.00;99.90
44990;DHT22;30723;51.206;3.326;2023-05-07T10:28:46;19.00;99.90
44990;DHT22;30723;51.206;3.326;2023-05-07T10:34:22;18.80;99.90
44990;DHT22;30723;51.206;3.326;2023-05-07T10:36:50;18.80;99.90
44990;DHT22;30723;51.206;3.326;2023-05-07T10:39:19;18.80;99.90
44990;DHT22;30723;51.206;3.326;2023-05-07T10:41:47;18.70;99.90
44990;DHT22;30723;51.206;3.326;2023-05-07T10:44:26;18.70;99.90
44990;DHT22;30723;51.206;3.326;2023-05-07T10:47:16;18.80;99.90
44990;DHT22;30723;51.206;3.326;2023-05-07T10:54:43;19.00;99.90
44990;DHT22;30723;51.206;3.326;2023-05-07T10:59:57;19.00;99.90
44990;DHT22;30723;51.206;3.326;2023-05-07T11:02:23;19.00;99.90
44990;DHT22;30723;51.206;3.326;2023-05-07T11:05:50;18.80;99.90
44990;DHT22;30723;51.206;3.326;2023-05-07T11:08:01;18.70;99.90
44990;DHT22;30723;51.206;3.326;2023-05-07T11:10:52;18.70;99.90
44990;DHT22;30723;51.206;3.326;2023-05-07T11:16:22;18.70;99.90
44990;DHT22;30723;51.206;3.326;2023-05-07T11:18:52;18.80;99.90
44990;DHT22;30723;51.206;3.326;2023-05-07T11:21:37;19.00;99.90
44990;DHT22;30723;51.206;3.326;2023-05-07T11:24:04;19.30;99.90
44990;DHT22;30723;51.206;3.326;2023-05-07T11:26:42;19.50;99.90
44990;DHT22;30723;51.206;3.326;2023-05-07T11:29:31;19.70;99.90
44990;DHT22;30723;51.206;3.326;2023-05-07T11:31:58;19.90;99.90
44990;DHT22;30723;51.206;3.326;2023-05-07T11:34:27;19.90;99.90
44990;DHT22;30723;51.206;3.326;2023-05-07T11:36:53;19.90;99.90
44990;DHT22;30723;51.206;3.326;2023-05-07T11:39:32;20.10;99.90
44990;DHT22;30723;51.206;3.326;2023-05-07T11:42:00;20.30;99.90
44990;DHT22;30723;51.206;3.326;2023-05-07T11:44:44;20.60;99.90
44990;DHT22;30723;51.206;3.326;2023-05-07T11:47:19;20.60;99.90
44990;DHT22;30723;51.206;3.326;2023-05-07T11:49:53;20.70;99.90
44990;DHT22;30723;51.206;3.326;2023-05-07T11:52:22;20.80;99.90
44990;DHT22;30723;51.206;3.326;2023-05-07T11:54:55;21.00;99.90
44990;DHT22;30723;51.206;3.326;2023-05-07T11:57:24;21.30;99.90
44990;DHT22;30723;51.206;3.326;2023-05-07T11:59:57;21.40;99.90
44990;DHT22;30723;51.206;3.326;2023-05-07T12:02:24;21.60;99.90
44990;DHT22;30723;51.206;3.326;2023-05-07T12:04:55;22.00;99.90
44990;DHT22;30723;51.206;3.326;2023-05-07T12:07:21;22.20;99.90
44990;DHT22;30723;51.206;3.326;2023-05-07T12:09:47;22.40;99.90
44990;DHT22;30723;51.206;3.326;2023-05-07T12:12:14;22.70;99.90
44990;DHT22;30723;51.206;3.326;2023-05-07T12:14:42;23.20;99.90
44990;DHT22;30723;51.206;3.326;2023-05-07T12:17:12;23.60;99.90
44990;DHT22;30723;51.206;3.326;2023-05-07T12:19:41;23.90;99.90
44990;DHT22;30723;51.206;3.326;2023-05-07T12:22:12;24.10;99.90
44990;DHT22;30723;51.206;3.326;2023-05-07T12:24:44;24.30;99.90
44990;DHT22;30723;51.206;3.326;2023-05-07T12:27:15;24.60;99.90
44990;DHT22;30723;51.206;3.326;2023-05-07T12:29:46;24.90;99.90
44990;DHT22;30723;51.206;3.326;2023-05-07T12:32:20;25.00;99.90
44990;DHT22;30723;51.206;3.326;2023-05-07T12:34:50;24.80;99.90
44990;DHT22;30723;51.206;3.326;2023-05-07T12:37:22;24.70;99.90
44990;DHT22;30723;51.206;3.326;2023-05-07T12:40:11;24.60;99.90
44990;DHT22;30723;51.206;3.326;2023-05-07T12:42:39;24.40;99.90
44990;DHT22;30723;51.206;3.326;2023-05-07T12:45:15;24.30;99.90
44990;DHT22;30723;51.206;3.326;2023-05-07T12:47:45;24.20;99.90
44990;DHT22;30723;51.206;3.326;2023-05-07T12:50:13;24.20;99.90
44990;DHT22;30723;51.206;3.326;2023-05-07T12:52:40;24.00;99.90
44990;DHT22;30723;51.206;3.326;2023-05-07T12:55:09;23.70;99.90
44990;DHT22;30723;51.206;3.326;2023-05-07T12:57:39;23.60;99.90
44990;DHT22;30723;51.206;3.326;2023-05-07T13:00:08;23.50;99.90
44990;DHT22;30723;51.206;3.326;2023-05-07T13:02:38;23.40;99.90
44990;DHT22;30723;51.206;3.326;2023-05-07T13:05:06;23.40;99.90
44990;DHT22;30723;51.206;3.326;2023-05-07T13:07:34;23.30;99.90
44990;DHT22;30723;51.206;3.326;2023-05-07T13:10:01;23.30;99.90
44990;DHT22;30723;51.206;3.326;2023-05-07T13:12:28;23.20;99.90
44990;DHT22;30723;51.206;3.326;2023-05-07T13:14:55;23.30;99.90
44990;DHT22;30723;51.206;3.326;2023-05-07T13:17:22;23.40;99.90
44990;DHT22;30723;51.206;3.326;2023-05-07T13:19:48;23.60;99.90
44990;DHT22;30723;51.206;3.326;2023-05-07T13:22:15;24.20;99.90
44990;DHT22;30723;51.206;3.326;2023-05-07T13:24:41;24.80;99.90
44990;DHT22;30723;51.206;3.326;2023-05-07T13:27:09;25.00;99.90
44990;DHT22;30723;51.206;3.326;2023-05-07T13:29:36;25.30;99.90
44990;DHT22;30723;51.206;3.326;2023-05-07T13:32:02;25.70;99.90
44990;DHT22;30723;51.206;3.326;2023-05-07T13:34:29;25.70;99.90
44990;DHT22;30723;51.206;3.326;2023-05-07T13:36:56;25.80;99.90
44990;DHT22;30723;51.206;3.326;2023-05-07T13:39:23;25.70;99.90
44990;DHT22;30723;51.206;3.326;2023-05-07T13:41:49;25.60;99.90
44990;DHT22;30723;51.206;3.326;2023-05-07T13:44:16;25.30;99.90
44990;DHT22;30723;51.206;3.326;2023-05-07T13:46:43;25.30;99.90
44990;DHT22;30723;51.206;3.326;2023-05-07T13:49:09;25.30;99.90
44990;DHT22;30723;51.206;3.326;2023-05-07T13:51:37;25.40;99.90
44990;DHT22;30723;51.206;3.326;2023-05-07T13:54:04;25.40;99.90
44990;DHT22;30723;51.206;3.326;2023-05-07T13:56:30;25.30;99.90
44990;DHT22;30723;51.206;3.326;2023-05-07T13:58:58;25.90;99.90
44990;DHT22;30723;51.206;3.326;2023-05-07T14:01:26;26.30;99.90
44990;DHT22;30723;51.206;3.326;2023-05-07T14:03:53;26.50;99.90
44990;DHT22;30723;51.206;3.326;2023-05-07T14:06:20;26.50;99.90
44990;DHT22;30723;51.206;3.326;2023-05-07T14:08:48;26.40;99.90
44990;DHT22;30723;51.206;3.326;2023-05-07T14:11:15;26.30;99.90
44990;DHT22;30723;51.206;3.326;2023-05-07T14:13:42;26.60;99.90
44990;DHT22;30723;51.206;3.326;2023-05-07T14:16:08;27.90;99.90
44990;DHT22;30723;51.206;3.326;2023-05-07T14:18:35;29.50;99.90
44990;DHT22;30723;51.206;3.326;2023-05-07T14:21:04;31.50;99.90
44990;DHT22;30723;51.206;3.326;2023-05-07T14:23:32;31.80;97.20
44990;DHT22;30723;51.206;3.326;2023-05-07T14:25:59;31.80;96.10
44990;DHT22;30723;51.206;3.326;2023-05-07T14:28:26;31.60;94.70
44990;DHT22;30723;51.206;3.326;2023-05-07T14:30:53;31.10;95.40
44990;DHT22;30723;51.206;3.326;2023-05-07T14:33:20;31.30;96.10
44990;DHT22;30723;51.206;3.326;2023-05-07T14:35:46;32.40;96.20
44990;DHT22;30723;51.206;3.326;2023-05-07T14:38:15;33.40;95.10
44990;DHT22;30723;51.206;3.326;2023-05-07T14:40:42;32.60;95.20
44990;DHT22;30723;51.206;3.326;2023-05-07T14:43:09;31.40;96.40
44990;DHT22;30723;51.206;3.326;2023-05-07T14:45:35;29.80;98.20
44990;DHT22;30723;51.206;3.326;2023-05-07T14:48:02;28.50;99.90
44990;DHT22;30723;51.206;3.326;2023-05-07T14:50:29;27.50;99.90
44990;DHT22;30723;51.206;3.326;2023-05-07T14:52:56;27.10;99.90
44990;DHT22;30723;51.206;3.326;2023-05-07T14:55:22;26.50;99.90
44990;DHT22;30723;51.206;3.326;2023-05-07T14:57:47;25.70;99.90
44990;DHT22;30723;51.206;3.326;2023-05-07T15:00:14;25.60;99.90
44990;DHT22;30723;51.206;3.326;2023-05-07T15:02:41;25.70;99.90
44990;DHT22;30723;51.206;3.326;2023-05-07T15:05:08;25.90;99.90
44990;DHT22;30723;51.206;3.326;2023-05-07T15:07:35;25.90;99.90
44990;DHT22;30723;51.206;3.326;2023-05-07T15:10:02;25.80;99.90
44990;DHT22;30723;51.206;3.326;2023-05-07T15:12:29;25.60;99.90
44990;DHT22;30723;51.206;3.326;2023-05-07T15:14:56;25.40;99.90
44990;DHT22;30723;51.206;3.326;2023-05-07T15:17:23;25.00;99.90
44990;DHT22;30723;51.206;3.326;2023-05-07T15:19:49;24.30;99.90
44990;DHT22;30723;51.206;3.326;2023-05-07T15:22:16;24.10;99.90
44990;DHT22;30723;51.206;3.326;2023-05-07T15:24:43;23.60;99.90
44990;DHT22;30723;51.206;3.326;2023-05-07T15:27:10;23.30;99.90
44990;DHT22;30723;51.206;3.326;2023-05-07T15:29:37;22.50;99.90
44990;DHT22;30723;51.206;3.326;2023-05-07T15:32:03;22.10;99.90
44990;DHT22;30723;51.206;3.326;2023-05-07T15:34:30;21.80;99.90
44990;DHT22;30723;51.206;3.326;2023-05-07T15:36:57;21.60;99.90
44990;DHT22;30723;51.206;3.326;2023-05-07T15:39:24;21.50;99.90
44990;DHT22;30723;51.206;3.326;2023-05-07T15:41:50;21.20;99.90
44990;DHT22;30723;51.206;3.326;2023-05-07T15:44:17;20.60;99.90
44990;DHT22;30723;51.206;3.326;2023-05-07T15:46:44;20.40;99.90
44990;DHT22;30723;51.206;3.326;2023-05-07T15:49:11;20.10;99.90